sensor_id;sensor_type;location;lat;lon;timestamp;P1;durP1;ratioP1;P2;durP2;ratioP2
77099;SDS011;66602;48.922;2.414;2023-05-10T00:00:09;8.38;;;2.50;;
77099;SDS011;66602;48.922;2.414;2023-05-10T00:02:35;13.27;;;3.22;;
77099;SDS011;66602;48.922;2.414;2023-05-10T00:05:01;7.35;;;2.35;;
77099;SDS011;66602;48.922;2.414;2023-05-10T00:07:26;4.35;;;2.50;;
77099;SDS011;66602;48.922;2.414;2023-05-10T00:09:52;9.93;;;2.53;;
77099;SDS011;66602;48.922;2.414;2023-05-10T00:12:17;8.05;;;2.65;;
77099;SDS011;66602;48.922;2.414;2023-05-10T00:14:43;7.15;;;2.40;;
77099;SDS011;66602;48.922;2.414;2023-05-10T00:17:08;4.18;;;2.45;;
77099;SDS011;66602;48.922;2.414;2023-05-10T00:19:34;4.72;;;2.50;;
77099;SDS011;66602;48.922;2.414;2023-05-10T00:21:59;9.15;;;2.95;;
77099;SDS011;66602;48.922;2.414;2023-05-10T00:24:25;9.45;;;2.00;;
77099;SDS011;66602;48.922;2.414;2023-05-10T00:26:50;6.40;;;2.20;;
77099;SDS011;66602;48.922;2.414;2023-05-10T00:29:16;4.35;;;1.60;;
77099;SDS011;66602;48.922;2.414;2023-05-10T00:31:41;3.00;;;1.30;;
77099;SDS011;66602;48.922;2.414;2023-05-10T00:34:07;3.60;;;1.60;;
77099;SDS011;66602;48.922;2.414;2023-05-10T00:36:32;4.03;;;1.48;;
77099;SDS011;66602;48.922;2.414;2023-05-10T00:38:58;13.20;;;1.80;;
77099;SDS011;66602;48.922;2.414;2023-05-10T00:41:23;8.23;;;2.20;;
77099;SDS011;66602;48.922;2.414;2023-05-10T00:43:49;6.28;;;1.70;;
77099;SDS011;66602;48.922;2.414;2023-05-10T00:46:14;4.05;;;1.42;;
77099;SDS011;66602;48.922;2.414;2023-05-10T00:48:40;2.00;;;1.02;;
77099;SDS011;66602;48.922;2.414;2023-05-10T00:51:06;1.40;;;1.20;;
77099;SDS011;66602;48.922;2.414;2023-05-10T00:53:32;3.05;;;1.42;;
77099;SDS011;66602;48.922;2.414;2023-05-10T00:56:00;2.45;;;1.20;;
77099;SDS011;66602;48.922;2.414;2023-05-10T00:58:26;2.80;;;1.25;;
77099;SDS011;66602;48.922;2.414;2023-05-10T01:00:54;2.42;;;1.17;;
77099;SDS011;66602;48.922;2.414;2023-05-10T01:03:22;5.13;;;1.23;;
77099;SDS011;66602;48.922;2.414;2023-05-10T01:05:47;2.28;;;0.90;;
77099;SDS011;66602;48.922;2.414;2023-05-10T01:08:12;1.60;;;1.00;;
77099;SDS011;66602;48.922;2.414;2023-05-10T01:10:38;3.17;;;1.20;;
77099;SDS011;66602;48.922;2.414;2023-05-10T01:13:04;4.28;;;1.38;;
77099;SDS011;66602;48.922;2.414;2023-05-10T01:15:29;11.98;;;1.65;;
77099;SDS011;66602;48.922;2.414;2023-05-10T01:17:56;4.05;;;1.30;;
77099;SDS011;66602;48.922;2.414;2023-05-10T01:20:21;4.50;;;1.52;;
77099;SDS011;66602;48.922;2.414;2023-05-10T01:33:58;5.07;;;1.70;;
77099;SDS011;66602;48.922;2.414;2023-05-10T01:36:28;2.83;;;1.27;;
77099;SDS011;66602;48.922;2.414;2023-05-10T01:46:58;1.55;;;1.45;;
77099;SDS011;66602;48.922;2.414;2023-05-10T01:49:37;3.65;;;1.38;;
77099;SDS011;66602;48.922;2.414;2023-05-10T01:52:09;3.00;;;1.40;;
77099;SDS011;66602;48.922;2.414;2023-05-10T01:54:41;9.18;;;1.90;;
77099;SDS011;66602;48.922;2.414;2023-05-10T01:57:09;4.00;;;1.38;;
77099;SDS011;66602;48.922;2.414;2023-05-10T01:59:39;3.20;;;1.08;;
77099;SDS011;66602;48.922;2.414;2023-05-10T02:02:08;3.00;;;1.05;;
77099;SDS011;66602;48.922;2.414;2023-05-10T02:04:37;6.10;;;1.40;;
77099;SDS011;66602;48.922;2.414;2023-05-10T02:07:04;2.08;;;1.25;;
77099;SDS011;66602;48.922;2.414;2023-05-10T02:09:32;6.88;;;1.65;;
77099;SDS011;66602;48.922;2.414;2023-05-10T02:11:59;11.73;;;1.60;;
77099;SDS011;66602;48.922;2.414;2023-05-10T02:14:27;2.67;;;0.95;;
77099;SDS011;66602;48.922;2.414;2023-05-10T02:16:55;8.38;;;2.70;;
77099;SDS011;66602;48.922;2.414;2023-05-10T02:19:22;7.47;;;1.48;;
77099;SDS011;66602;48.922;2.414;2023-05-10T02:21:49;1.42;;;0.90;;
77099;SDS011;66602;48.922;2.414;2023-05-10T02:24:16;2.05;;;1.05;;
77099;SDS011;66602;48.922;2.414;2023-05-10T02:26:42;3.08;;;1.15;;
77099;SDS011;66602;48.922;2.414;2023-05-10T02:29:10;2.40;;;1.30;;
77099;SDS011;66602;48.922;2.414;2023-05-10T02:31:37;11.25;;;2.10;;
77099;SDS011;66602;48.922;2.414;2023-05-10T02:34:03;3.80;;;0.95;;
77099;SDS011;66602;48.922;2.414;2023-05-10T02:36:31;2.97;;;1.45;;
77099;SDS011;66602;48.922;2.414;2023-05-10T02:38:57;1.55;;;1.08;;
77099;SDS011;66602;48.922;2.414;2023-05-10T02:41:25;6.25;;;1.65;;
77099;SDS011;66602;48.922;2.414;2023-05-10T02:43:52;2.10;;;1.13;;
77099;SDS011;66602;48.922;2.414;2023-05-10T02:46:22;4.32;;;1.70;;
77099;SDS011;66602;48.922;2.414;2023-05-10T02:48:48;0.80;;;0.80;;
77099;SDS011;66602;48.922;2.414;2023-05-10T02:51:14;3.40;;;1.35;;
77099;SDS011;66602;48.922;2.414;2023-05-10T02:53:43;2.55;;;1.10;;
77099;SDS011;66602;48.922;2.414;2023-05-10T02:56:15;1.35;;;0.95;;
77099;SDS011;66602;48.922;2.414;2023-05-10T02:58:48;1.45;;;1.05;;
77099;SDS011;66602;48.922;2.414;2023-05-10T03:01:14;2.47;;;1.00;;
77099;SDS011;66602;48.922;2.414;2023-05-10T03:03:40;5.78;;;0.90;;
77099;SDS011;66602;48.922;2.414;2023-05-10T03:06:06;2.00;;;0.98;;
77099;SDS011;66602;48.922;2.414;2023-05-10T03:08:31;2.78;;;0.88;;
77099;SDS011;66602;48.922;2.414;2023-05-10T03:13:32;0.70;;;0.70;;
77099;SDS011;66602;48.922;2.414;2023-05-10T03:16:09;4.15;;;0.95;;
77099;SDS011;66602;48.922;2.414;2023-05-10T03:18:50;3.92;;;1.15;;
77099;SDS011;66602;48.922;2.414;2023-05-10T03:21:22;4.18;;;0.95;;
77099;SDS011;66602;48.922;2.414;2023-05-10T03:23:51;2.97;;;1.00;;
77099;SDS011;66602;48.922;2.414;2023-05-10T03:26:24;1.10;;;1.05;;
77099;SDS011;66602;48.922;2.414;2023-05-10T03:28:52;3.58;;;1.00;;
77099;SDS011;66602;48.922;2.414;2023-05-10T03:31:18;2.28;;;1.02;;
77099;SDS011;66602;48.922;2.414;2023-05-10T03:33:50;1.63;;;0.90;;
77099;SDS011;66602;48.922;2.414;2023-05-10T03:36:17;0.55;;;0.50;;
77099;SDS011;66602;48.922;2.414;2023-05-10T03:38:43;0.55;;;0.55;;
77099;SDS011;66602;48.922;2.414;2023-05-10T03:41:09;1.30;;;0.90;;
77099;SDS011;66602;48.922;2.414;2023-05-10T03:43:35;3.15;;;0.80;;
77099;SDS011;66602;48.922;2.414;2023-05-10T03:46:04;2.83;;;0.82;;
77099;SDS011;66602;48.922;2.414;2023-05-10T03:48:30;1.42;;;0.63;;
77099;SDS011;66602;48.922;2.414;2023-05-10T03:50:57;1.45;;;1.35;;
77099;SDS011;66602;48.922;2.414;2023-05-10T03:53:22;4.20;;;1.50;;
77099;SDS011;66602;48.922;2.414;2023-05-10T03:55:48;1.92;;;0.70;;
77099;SDS011;66602;48.922;2.414;2023-05-10T03:58:14;1.13;;;1.02;;
77099;SDS011;66602;48.922;2.414;2023-05-10T04:00:40;1.50;;;1.40;;
77099;SDS011;66602;48.922;2.414;2023-05-10T04:03:09;3.15;;;0.90;;
77099;SDS011;66602;48.922;2.414;2023-05-10T04:05:35;3.17;;;0.98;;
77099;SDS011;66602;48.922;2.414;2023-05-10T04:08:01;1.20;;;0.80;;
77099;SDS011;66602;48.922;2.414;2023-05-10T04:10:27;3.13;;;1.25;;
77099;SDS011;66602;48.922;2.414;2023-05-10T04:12:53;4.65;;;0.95;;
77099;SDS011;66602;48.922;2.414;2023-05-10T04:15:19;0.90;;;0.90;;
77099;SDS011;66602;48.922;2.414;2023-05-10T04:17:44;1.30;;;1.20;;
77099;SDS011;66602;48.922;2.414;2023-05-10T04:20:10;1.13;;;0.88;;
77099;SDS011;66602;48.922;2.414;2023-05-10T04:22:36;2.70;;;1.17;;
77099;SDS011;66602;48.922;2.414;2023-05-10T04:25:02;1.95;;;0.98;;
77099;SDS011;66602;48.922;2.414;2023-05-10T04:27:28;5.07;;;1.10;;
77099;SDS011;66602;48.922;2.414;2023-05-10T04:29:53;1.40;;;1.23;;
77099;SDS011;66602;48.922;2.414;2023-05-10T04:32:19;1.10;;;1.00;;
77099;SDS011;66602;48.922;2.414;2023-05-10T04:34:45;1.10;;;0.90;;
77099;SDS011;66602;48.922;2.414;2023-05-10T04:37:10;0.73;;;0.73;;
77099;SDS011;66602;48.922;2.414;2023-05-10T04:39:36;0.98;;;0.88;;
77099;SDS011;66602;48.922;2.414;2023-05-10T04:42:02;2.50;;;1.30;;
77099;SDS011;66602;48.922;2.414;2023-05-10T04:44:28;1.35;;;0.85;;
77099;SDS011;66602;48.922;2.414;2023-05-10T04:46:54;1.20;;;1.10;;
77099;SDS011;66602;48.922;2.414;2023-05-10T04:49:20;2.65;;;0.80;;
77099;SDS011;66602;48.922;2.414;2023-05-10T04:51:45;1.13;;;1.10;;
77099;SDS011;66602;48.922;2.414;2023-05-10T04:54:11;1.63;;;1.20;;
77099;SDS011;66602;48.922;2.414;2023-05-10T04:56:37;1.20;;;1.10;;
77099;SDS011;66602;48.922;2.414;2023-05-10T04:59:02;1.63;;;1.52;;
77099;SDS011;66602;48.922;2.414;2023-05-10T05:01:28;1.30;;;1.25;;
77099;SDS011;66602;48.922;2.414;2023-05-10T05:03:53;1.35;;;1.25;;
77099;SDS011;66602;48.922;2.414;2023-05-10T05:06:19;2.50;;;1.27;;
77099;SDS011;66602;48.922;2.414;2023-05-10T05:08:46;4.05;;;1.63;;
77099;SDS011;66602;48.922;2.414;2023-05-10T05:11:11;3.25;;;1.45;;
77099;SDS011;66602;48.922;2.414;2023-05-10T05:13:37;5.13;;;1.50;;
77099;SDS011;66602;48.922;2.414;2023-05-10T05:16:02;2.67;;;1.85;;
77099;SDS011;66602;48.922;2.414;2023-05-10T05:18:28;3.22;;;1.70;;
77099;SDS011;66602;48.922;2.414;2023-05-10T05:20:54;2.22;;;1.70;;
77099;SDS011;66602;48.922;2.414;2023-05-10T05:23:19;2.45;;;2.25;;
77099;SDS011;66602;48.922;2.414;2023-05-10T05:25:46;2.20;;;1.98;;
77099;SDS011;66602;48.922;2.414;2023-05-10T05:28:11;3.75;;;2.05;;
77099;SDS011;66602;48.922;2.414;2023-05-10T05:30:37;3.88;;;1.98;;
77099;SDS011;66602;48.922;2.414;2023-05-10T05:33:03;2.30;;;1.80;;
77099;SDS011;66602;48.922;2.414;2023-05-10T05:35:28;2.28;;;2.00;;
77099;SDS011;66602;48.922;2.414;2023-05-10T05:37:54;2.88;;;2.67;;
77099;SDS011;66602;48.922;2.414;2023-05-10T05:40:20;5.63;;;3.13;;
77099;SDS011;66602;48.922;2.414;2023-05-10T05:42:46;4.53;;;2.50;;
77099;SDS011;66602;48.922;2.414;2023-05-10T05:45:11;3.03;;;2.83;;
77099;SDS011;66602;48.922;2.414;2023-05-10T05:47:40;2.70;;;2.50;;
77099;SDS011;66602;48.922;2.414;2023-05-10T05:50:05;2.88;;;2.50;;
77099;SDS011;66602;48.922;2.414;2023-05-10T05:52:31;2.22;;;2.05;;
77099;SDS011;66602;48.922;2.414;2023-05-10T05:54:57;8.35;;;2.90;;
77099;SDS011;66602;48.922;2.414;2023-05-10T05:57:22;5.43;;;2.50;;
77099;SDS011;66602;48.922;2.414;2023-05-10T05:59:48;4.93;;;2.90;;
77099;SDS011;66602;48.922;2.414;2023-05-10T06:02:13;5.00;;;3.03;;
77099;SDS011;66602;48.922;2.414;2023-05-10T06:04:39;3.08;;;2.88;;
77099;SDS011;66602;48.922;2.414;2023-05-10T06:07:04;5.07;;;2.50;;
77099;SDS011;66602;48.922;2.414;2023-05-10T06:09:30;10.60;;;2.85;;
77099;SDS011;66602;48.922;2.414;2023-05-10T06:11:56;2.78;;;2.58;;
77099;SDS011;66602;48.922;2.414;2023-05-10T06:14:23;5.05;;;2.83;;
77099;SDS011;66602;48.922;2.414;2023-05-10T06:16:48;6.38;;;2.45;;
77099;SDS011;66602;48.922;2.414;2023-05-10T06:19:14;5.40;;;2.70;;
77099;SDS011;66602;48.922;2.414;2023-05-10T06:21:39;4.32;;;2.70;;
77099;SDS011;66602;48.922;2.414;2023-05-10T06:24:05;6.38;;;2.97;;
77099;SDS011;66602;48.922;2.414;2023-05-10T06:26:31;3.35;;;2.53;;
77099;SDS011;66602;48.922;2.414;2023-05-10T06:28:57;3.35;;;2.90;;
77099;SDS011;66602;48.922;2.414;2023-05-10T06:31:23;4.55;;;3.30;;
77099;SDS011;66602;48.922;2.414;2023-05-10T06:33:48;4.00;;;2.72;;
77099;SDS011;66602;48.922;2.414;2023-05-10T06:36:14;5.00;;;2.55;;
77099;SDS011;66602;48.922;2.414;2023-05-10T06:38:39;6.00;;;3.00;;
77099;SDS011;66602;48.922;2.414;2023-05-10T06:41:05;4.28;;;2.92;;
77099;SDS011;66602;48.922;2.414;2023-05-10T06:43:30;6.35;;;3.33;;
77099;SDS011;66602;48.922;2.414;2023-05-10T06:45:56;7.20;;;3.60;;
77099;SDS011;66602;48.922;2.414;2023-05-10T06:48:22;4.20;;;3.15;;
77099;SDS011;66602;48.922;2.414;2023-05-10T06:50:48;8.88;;;3.80;;
77099;SDS011;66602;48.922;2.414;2023-05-10T06:53:13;7.30;;;3.40;;
77099;SDS011;66602;48.922;2.414;2023-05-10T06:55:39;10.13;;;4.40;;
77099;SDS011;66602;48.922;2.414;2023-05-10T06:58:04;9.70;;;3.92;;
77099;SDS011;66602;48.922;2.414;2023-05-10T07:00:31;6.10;;;3.58;;
77099;SDS011;66602;48.922;2.414;2023-05-10T07:02:56;12.30;;;4.25;;
77099;SDS011;66602;48.922;2.414;2023-05-10T07:05:22;9.55;;;3.78;;
77099;SDS011;66602;48.922;2.414;2023-05-10T07:07:47;6.65;;;3.53;;
77099;SDS011;66602;48.922;2.414;2023-05-10T07:10:13;10.10;;;3.90;;
77099;SDS011;66602;48.922;2.414;2023-05-10T07:12:38;5.47;;;3.63;;
77099;SDS011;66602;48.922;2.414;2023-05-10T07:15:04;12.07;;;4.10;;
77099;SDS011;66602;48.922;2.414;2023-05-10T07:17:30;5.85;;;3.38;;
77099;SDS011;66602;48.922;2.414;2023-05-10T07:19:55;5.38;;;3.25;;
77099;SDS011;66602;48.922;2.414;2023-05-10T07:22:21;12.02;;;4.18;;
77099;SDS011;66602;48.922;2.414;2023-05-10T07:24:47;12.90;;;3.00;;
77099;SDS011;66602;48.922;2.414;2023-05-10T07:27:12;7.97;;;5.10;;
77099;SDS011;66602;48.922;2.414;2023-05-10T07:29:38;5.35;;;3.78;;
77099;SDS011;66602;48.922;2.414;2023-05-10T07:32:03;10.88;;;3.90;;
77099;SDS011;66602;48.922;2.414;2023-05-10T07:34:29;9.90;;;4.15;;
77099;SDS011;66602;48.922;2.414;2023-05-10T07:36:59;7.97;;;4.10;;
77099;SDS011;66602;48.922;2.414;2023-05-10T07:39:26;7.03;;;4.00;;
77099;SDS011;66602;48.922;2.414;2023-05-10T07:41:52;6.30;;;4.03;;
77099;SDS011;66602;48.922;2.414;2023-05-10T07:44:17;5.65;;;4.93;;
77099;SDS011;66602;48.922;2.414;2023-05-10T07:46:46;8.35;;;4.50;;
77099;SDS011;66602;48.922;2.414;2023-05-10T07:49:12;14.18;;;5.40;;
77099;SDS011;66602;48.922;2.414;2023-05-10T07:51:38;7.57;;;4.68;;
77099;SDS011;66602;48.922;2.414;2023-05-10T07:54:03;8.82;;;5.28;;
77099;SDS011;66602;48.922;2.414;2023-05-10T07:56:30;6.80;;;5.55;;
77099;SDS011;66602;48.922;2.414;2023-05-10T07:58:56;6.75;;;5.38;;
77099;SDS011;66602;48.922;2.414;2023-05-10T08:01:23;9.13;;;4.90;;
77099;SDS011;66602;48.922;2.414;2023-05-10T08:03:49;5.70;;;4.60;;
77099;SDS011;66602;48.922;2.414;2023-05-10T08:06:16;10.20;;;4.72;;
77099;SDS011;66602;48.922;2.414;2023-05-10T08:08:43;8.18;;;4.28;;
77099;SDS011;66602;48.922;2.414;2023-05-10T08:11:10;5.40;;;4.63;;
77099;SDS011;66602;48.922;2.414;2023-05-10T08:13:36;7.07;;;4.53;;
77099;SDS011;66602;48.922;2.414;2023-05-10T08:16:01;10.65;;;5.50;;
77099;SDS011;66602;48.922;2.414;2023-05-10T08:18:27;7.85;;;4.72;;
77099;SDS011;66602;48.922;2.414;2023-05-10T08:20:53;12.20;;;5.32;;
77099;SDS011;66602;48.922;2.414;2023-05-10T08:23:19;7.45;;;5.65;;
77099;SDS011;66602;48.922;2.414;2023-05-10T08:25:44;8.32;;;5.60;;
77099;SDS011;66602;48.922;2.414;2023-05-10T08:28:09;9.85;;;5.88;;
77099;SDS011;66602;48.922;2.414;2023-05-10T08:30:35;10.98;;;6.60;;
77099;SDS011;66602;48.922;2.414;2023-05-10T08:33:00;15.38;;;6.85;;
77099;SDS011;66602;48.922;2.414;2023-05-10T08:35:26;7.72;;;6.28;;
77099;SDS011;66602;48.922;2.414;2023-05-10T08:37:51;9.48;;;5.80;;
77099;SDS011;66602;48.922;2.414;2023-05-10T08:40:17;14.80;;;6.75;;
77099;SDS011;66602;48.922;2.414;2023-05-10T08:42:47;14.88;;;7.13;;
77099;SDS011;66602;48.922;2.414;2023-05-10T08:45:21;18.80;;;7.50;;
77099;SDS011;66602;48.922;2.414;2023-05-10T08:47:48;14.00;;;7.60;;
77099;SDS011;66602;48.922;2.414;2023-05-10T08:50:15;10.02;;;7.88;;
77099;SDS011;66602;48.922;2.414;2023-05-10T08:52:42;10.45;;;7.35;;
77099;SDS011;66602;48.922;2.414;2023-05-10T08:55:08;11.63;;;7.40;;
77099;SDS011;66602;48.922;2.414;2023-05-10T08:57:35;12.55;;;8.30;;
77099;SDS011;66602;48.922;2.414;2023-05-10T09:00:01;13.38;;;7.53;;
77099;SDS011;66602;48.922;2.414;2023-05-10T09:02:27;15.60;;;7.35;;
77099;SDS011;66602;48.922;2.414;2023-05-10T09:04:53;25.45;;;8.98;;
77099;SDS011;66602;48.922;2.414;2023-05-10T09:07:18;12.35;;;7.30;;
77099;SDS011;66602;48.922;2.414;2023-05-10T09:09:45;14.02;;;8.15;;
77099;SDS011;66602;48.922;2.414;2023-05-10T09:12:11;12.23;;;7.93;;
77099;SDS011;66602;48.922;2.414;2023-05-10T09:14:40;17.67;;;8.18;;
77099;SDS011;66602;48.922;2.414;2023-05-10T09:17:07;13.25;;;7.60;;
77099;SDS011;66602;48.922;2.414;2023-05-10T09:19:33;13.50;;;8.52;;
77099;SDS011;66602;48.922;2.414;2023-05-10T09:21:58;12.63;;;6.47;;
77099;SDS011;66602;48.922;2.414;2023-05-10T09:24:25;21.67;;;8.00;;
77099;SDS011;66602;48.922;2.414;2023-05-10T09:26:52;18.42;;;8.27;;
77099;SDS011;66602;48.922;2.414;2023-05-10T09:29:17;16.05;;;7.47;;
77099;SDS011;66602;48.922;2.414;2023-05-10T09:31:50;21.23;;;6.68;;
77099;SDS011;66602;48.922;2.414;2023-05-10T09:34:18;15.98;;;7.13;;
77099;SDS011;66602;48.922;2.414;2023-05-10T09:36:55;12.00;;;6.53;;
77099;SDS011;66602;48.922;2.414;2023-05-10T09:39:35;14.55;;;7.85;;
77099;SDS011;66602;48.922;2.414;2023-05-10T09:42:08;10.77;;;7.93;;
77099;SDS011;66602;48.922;2.414;2023-05-10T09:44:34;22.40;;;8.23;;
77099;SDS011;66602;48.922;2.414;2023-05-10T09:47:03;19.42;;;8.73;;
77099;SDS011;66602;48.922;2.414;2023-05-10T09:49:28;19.55;;;8.02;;
77099;SDS011;66602;48.922;2.414;2023-05-10T09:52:00;13.07;;;6.45;;
77099;SDS011;66602;48.922;2.414;2023-05-10T09:54:27;14.38;;;7.22;;
77099;SDS011;66602;48.922;2.414;2023-05-10T09:56:53;17.67;;;7.35;;
77099;SDS011;66602;48.922;2.414;2023-05-10T09:59:18;16.35;;;7.15;;
77099;SDS011;66602;48.922;2.414;2023-05-10T10:01:49;21.77;;;7.57;;
77099;SDS011;66602;48.922;2.414;2023-05-10T10:04:16;16.60;;;6.32;;
77099;SDS011;66602;48.922;2.414;2023-05-10T10:06:42;20.50;;;7.93;;
77099;SDS011;66602;48.922;2.414;2023-05-10T10:09:07;18.33;;;8.02;;
77099;SDS011;66602;48.922;2.414;2023-05-10T10:11:34;18.88;;;6.10;;
77099;SDS011;66602;48.922;2.414;2023-05-10T10:14:03;21.52;;;6.53;;
77099;SDS011;66602;48.922;2.414;2023-05-10T10:16:29;16.52;;;6.20;;
77099;SDS011;66602;48.922;2.414;2023-05-10T10:18:55;21.98;;;6.00;;
77099;SDS011;66602;48.922;2.414;2023-05-10T10:21:22;20.95;;;5.90;;
77099;SDS011;66602;48.922;2.414;2023-05-10T10:23:47;14.40;;;5.28;;
77099;SDS011;66602;48.922;2.414;2023-05-10T10:26:13;20.95;;;5.18;;
77099;SDS011;66602;48.922;2.414;2023-05-10T10:31:34;21.50;;;5.22;;
77099;SDS011;66602;48.922;2.414;2023-05-10T10:34:10;13.85;;;4.65;;
77099;SDS011;66602;48.922;2.414;2023-05-10T10:36:50;14.45;;;4.68;;
77099;SDS011;66602;48.922;2.414;2023-05-10T10:39:15;15.90;;;4.93;;
77099;SDS011;66602;48.922;2.414;2023-05-10T10:41:51;15.77;;;4.90;;
77099;SDS011;66602;48.922;2.414;2023-05-10T10:49:48;10.65;;;5.18;;
77099;SDS011;66602;48.922;2.414;2023-05-10T10:57:43;16.80;;;4.97;;
77099;SDS011;66602;48.922;2.414;2023-05-10T11:05:41;17.63;;;5.47;;
77099;SDS011;66602;48.922;2.414;2023-05-10T11:10:40;22.70;;;5.13;;
77099;SDS011;66602;48.922;2.414;2023-05-10T11:13:13;13.77;;;4.57;;
77099;SDS011;66602;48.922;2.414;2023-05-10T11:15:39;12.63;;;4.32;;
77099;SDS011;66602;48.922;2.414;2023-05-10T11:18:18;19.50;;;5.18;;
77099;SDS011;66602;48.922;2.414;2023-05-10T11:20:49;12.77;;;4.40;;
77099;SDS011;66602;48.922;2.414;2023-05-10T11:23:16;15.73;;;4.25;;
77099;SDS011;66602;48.922;2.414;2023-05-10T11:25:43;11.20;;;4.57;;
77099;SDS011;66602;48.922;2.414;2023-05-10T11:28:09;11.57;;;4.43;;
77099;SDS011;66602;48.922;2.414;2023-05-10T11:30:37;12.98;;;4.18;;
77099;SDS011;66602;48.922;2.414;2023-05-10T11:33:04;19.40;;;5.13;;
77099;SDS011;66602;48.922;2.414;2023-05-10T11:35:30;18.88;;;5.10;;
77099;SDS011;66602;48.922;2.414;2023-05-10T11:37:56;16.85;;;4.85;;
77099;SDS011;66602;48.922;2.414;2023-05-10T11:40:21;17.08;;;5.03;;
77099;SDS011;66602;48.922;2.414;2023-05-10T11:42:49;9.88;;;4.32;;
77099;SDS011;66602;48.922;2.414;2023-05-10T11:45:15;14.75;;;4.35;;
77099;SDS011;66602;48.922;2.414;2023-05-10T11:47:41;10.27;;;4.15;;
77099;SDS011;66602;48.922;2.414;2023-05-10T11:50:08;13.70;;;4.10;;
77099;SDS011;66602;48.922;2.414;2023-05-10T11:52:36;11.57;;;3.60;;
77099;SDS011;66602;48.922;2.414;2023-05-10T11:55:05;9.07;;;3.65;;
77099;SDS011;66602;48.922;2.414;2023-05-10T11:57:31;14.57;;;3.90;;
77099;SDS011;66602;48.922;2.414;2023-05-10T11:59:56;10.82;;;3.88;;
77099;SDS011;66602;48.922;2.414;2023-05-10T12:02:22;10.60;;;3.63;;
77099;SDS011;66602;48.922;2.414;2023-05-10T12:04:49;6.15;;;3.80;;
77099;SDS011;66602;48.922;2.414;2023-05-10T12:07:15;9.52;;;3.38;;
77099;SDS011;66602;48.922;2.414;2023-05-10T12:09:44;7.05;;;3.15;;
77099;SDS011;66602;48.922;2.414;2023-05-10T12:12:10;8.50;;;3.00;;
77099;SDS011;66602;48.922;2.414;2023-05-10T12:14:41;7.93;;;3.10;;
77099;SDS011;66602;48.922;2.414;2023-05-10T12:17:11;12.38;;;3.67;;
77099;SDS011;66602;48.922;2.414;2023-05-10T12:19:37;12.20;;;3.53;;
77099;SDS011;66602;48.922;2.414;2023-05-10T12:22:06;12.32;;;3.58;;
77099;SDS011;66602;48.922;2.414;2023-05-10T12:24:35;10.13;;;3.75;;
77099;SDS011;66602;48.922;2.414;2023-05-10T12:27:07;17.58;;;4.50;;
77099;SDS011;66602;48.922;2.414;2023-05-10T12:29:33;10.75;;;4.60;;
77099;SDS011;66602;48.922;2.414;2023-05-10T12:31:59;14.15;;;4.85;;
77099;SDS011;66602;48.922;2.414;2023-05-10T12:34:31;22.63;;;5.30;;
77099;SDS011;66602;48.922;2.414;2023-05-10T12:37:00;17.30;;;5.57;;
77099;SDS011;66602;48.922;2.414;2023-05-10T12:39:26;20.88;;;6.60;;
77099;SDS011;66602;48.922;2.414;2023-05-10T12:42:02;12.32;;;4.95;;
77099;SDS011;66602;48.922;2.414;2023-05-10T12:44:27;16.42;;;5.05;;
77099;SDS011;66602;48.922;2.414;2023-05-10T12:46:53;15.27;;;4.65;;
77099;SDS011;66602;48.922;2.414;2023-05-10T12:49:18;14.65;;;4.57;;
77099;SDS011;66602;48.922;2.414;2023-05-10T12:51:44;13.73;;;4.18;;
77099;SDS011;66602;48.922;2.414;2023-05-10T12:54:10;13.13;;;4.93;;
77099;SDS011;66602;48.922;2.414;2023-05-10T12:56:38;11.05;;;4.95;;
77099;SDS011;66602;48.922;2.414;2023-05-10T12:59:05;13.57;;;5.68;;
77099;SDS011;66602;48.922;2.414;2023-05-10T13:01:31;15.73;;;5.03;;
77099;SDS011;66602;48.922;2.414;2023-05-10T13:03:56;12.23;;;4.35;;
77099;SDS011;66602;48.922;2.414;2023-05-10T13:06:22;12.15;;;4.03;;
77099;SDS011;66602;48.922;2.414;2023-05-10T13:08:47;22.13;;;3.67;;
77099;SDS011;66602;48.922;2.414;2023-05-10T13:11:13;14.52;;;4.55;;
77099;SDS011;66602;48.922;2.414;2023-05-10T13:13:41;20.13;;;4.07;;
77099;SDS011;66602;48.922;2.414;2023-05-10T13:16:07;13.38;;;3.40;;
77099;SDS011;66602;48.922;2.414;2023-05-10T13:18:32;12.52;;;3.35;;
77099;SDS011;66602;48.922;2.414;2023-05-10T13:20:57;4.32;;;2.70;;
77099;SDS011;66602;48.922;2.414;2023-05-10T13:23:23;8.48;;;3.15;;
77099;SDS011;66602;48.922;2.414;2023-05-10T13:25:49;12.18;;;3.47;;
77099;SDS011;66602;48.922;2.414;2023-05-10T13:28:14;7.50;;;2.97;;
77099;SDS011;66602;48.922;2.414;2023-05-10T13:30:40;5.72;;;2.60;;
77099;SDS011;66602;48.922;2.414;2023-05-10T13:33:05;9.20;;;3.10;;
77099;SDS011;66602;48.922;2.414;2023-05-10T13:35:31;7.05;;;3.03;;
77099;SDS011;66602;48.922;2.414;2023-05-10T13:37:56;5.60;;;2.97;;
77099;SDS011;66602;48.922;2.414;2023-05-10T13:40:22;9.63;;;3.38;;
77099;SDS011;66602;48.922;2.414;2023-05-10T13:42:48;7.60;;;3.00;;
77099;SDS011;66602;48.922;2.414;2023-05-10T13:45:13;19.98;;;3.95;;
77099;SDS011;66602;48.922;2.414;2023-05-10T13:47:39;18.00;;;4.28;;
77099;SDS011;66602;48.922;2.414;2023-05-10T13:50:04;8.55;;;3.28;;
77099;SDS011;66602;48.922;2.414;2023-05-10T13:52:30;6.88;;;2.55;;
77099;SDS011;66602;48.922;2.414;2023-05-10T13:54:56;4.68;;;2.10;;
77099;SDS011;66602;48.922;2.414;2023-05-10T13:57:22;5.70;;;2.28;;
77099;SDS011;66602;48.922;2.414;2023-05-10T13:59:48;7.78;;;2.70;;
77099;SDS011;66602;48.922;2.414;2023-05-10T14:02:13;8.10;;;2.92;;
77099;SDS011;66602;48.922;2.414;2023-05-10T14:04:38;6.38;;;2.97;;
77099;SDS011;66602;48.922;2.414;2023-05-10T14:07:04;14.52;;;3.30;;
77099;SDS011;66602;48.922;2.414;2023-05-10T14:09:30;9.98;;;3.08;;
77099;SDS011;66602;48.922;2.414;2023-05-10T14:11:56;11.65;;;2.92;;
77099;SDS011;66602;48.922;2.414;2023-05-10T14:14:22;11.77;;;4.32;;
77099;SDS011;66602;48.922;2.414;2023-05-10T14:16:47;8.88;;;2.97;;
77099;SDS011;66602;48.922;2.414;2023-05-10T14:19:13;5.93;;;2.60;;
77099;SDS011;66602;48.922;2.414;2023-05-10T14:21:38;5.65;;;2.25;;
77099;SDS011;66602;48.922;2.414;2023-05-10T14:24:04;2.75;;;1.88;;
77099;SDS011;66602;48.922;2.414;2023-05-10T14:26:29;6.00;;;2.28;;
77099;SDS011;66602;48.922;2.414;2023-05-10T14:28:56;6.10;;;2.50;;
77099;SDS011;66602;48.922;2.414;2023-05-10T14:31:21;6.97;;;2.33;;
77099;SDS011;66602;48.922;2.414;2023-05-10T14:33:48;5.88;;;1.92;;
77099;SDS011;66602;48.922;2.414;2023-05-10T14:36:13;4.60;;;2.50;;
77099;SDS011;66602;48.922;2.414;2023-05-10T14:38:39;6.18;;;2.67;;
77099;SDS011;66602;48.922;2.414;2023-05-10T14:41:05;5.13;;;2.28;;
77099;SDS011;66602;48.922;2.414;2023-05-10T14:43:30;2.95;;;2.20;;
77099;SDS011;66602;48.922;2.414;2023-05-10T14:45:56;4.85;;;2.72;;
77099;SDS011;66602;48.922;2.414;2023-05-10T14:48:22;8.07;;;2.83;;
77099;SDS011;66602;48.922;2.414;2023-05-10T14:50:47;8.93;;;3.42;;
77099;SDS011;66602;48.922;2.414;2023-05-10T14:53:14;3.42;;;2.45;;
77099;SDS011;66602;48.922;2.414;2023-05-10T14:55:40;9.45;;;2.35;;
77099;SDS011;66602;48.922;2.414;2023-05-10T14:58:05;8.57;;;2.83;;
77099;SDS011;66602;48.922;2.414;2023-05-10T15:00:31;7.93;;;2.72;;
77099;SDS011;66602;48.922;2.414;2023-05-10T15:02:56;4.80;;;2.55;;
77099;SDS011;66602;48.922;2.414;2023-05-10T15:05:22;6.85;;;2.42;;
77099;SDS011;66602;48.922;2.414;2023-05-10T15:07:47;4.38;;;2.20;;
77099;SDS011;66602;48.922;2.414;2023-05-10T15:10:13;4.70;;;2.40;;
77099;SDS011;66602;48.922;2.414;2023-05-10T15:12:39;12.98;;;2.90;;
77099;SDS011;66602;48.922;2.414;2023-05-10T15:15:05;8.43;;;2.40;;
77099;SDS011;66602;48.922;2.414;2023-05-10T15:17:31;4.43;;;2.00;;
77099;SDS011;66602;48.922;2.414;2023-05-10T15:19:57;7.15;;;2.70;;
77099;SDS011;66602;48.922;2.414;2023-05-10T15:22:22;7.97;;;2.92;;